Time;durP1;ratioP1;P1;durP2;ratioP2;P2;SDS_P1;SDS_P2;PMS_P1;PMS_P2;Temp;Humidity;BMP_temperature;BMP_pressure;BME280_temperature;BME280_humidity;BME280_pressure;Samples;Min_cycle;Max_cycle;Signal;HPM_P1;HPM_P2
2022/04/04 00:00:18;;;;;;;7.22;2.83;;;;;;;18.17;22.29;97991.19;5051498;28;20025;-66
2022/04/04 00:02:44;;;;;;;4.30;2.58;;;;;;;17.92;22.68;97983.78;5051459;28;20045;-70
2022/04/04 00:05:11;;;;;;;3.63;2.30;;;;;;;17.72;22.47;97983.00;5051879;28;20082;-69
2022/04/04 00:07:37;;;;;;;3.53;2.40;;;;;;;17.56;22.55;97981.53;5048848;28;20495;-66
2022/04/04 00:10:04;;;;;;;4.00;2.45;;;;;;;17.43;22.63;97979.66;5049971;28;20033;-66
2022/04/04 00:12:29;;;;;;;4.85;2.65;;;;;;;17.32;22.79;97984.56;5050193;28;20124;-70
2022/04/04 00:14:55;;;;;;;3.40;2.22;;;;;;;17.23;22.51;97981.25;5050763;28;20119;-67
2022/04/04 00:17:21;;;;;;;3.70;2.38;;;;;;;17.11;22.60;97982.88;5052242;28;20024;-66
2022/04/04 00:19:47;;;;;;;4.40;2.42;;;;;;;17.05;22.50;97986.38;5052319;28;20025;-65
2022/04/04 00:22:12;;;;;;;4.38;2.67;;;;;;;16.99;22.75;97989.84;5045485;28;20036;-68
2022/04/04 00:24:38;;;;;;;4.65;2.63;;;;;;;16.94;22.60;97987.75;5047512;28;20381;-67
2022/04/04 00:27:28;;;;;;;3.22;2.10;;;;;;;16.87;22.58;97987.72;5048016;28;20404;-64
2022/04/04 00:29:53;;;;;;;4.80;2.75;;;;;;;16.81;22.40;97993.03;5051092;28;20101;-68
2022/04/04 00:32:19;;;;;;;3.50;2.50;;;;;;;16.76;23.09;97996.31;5050177;28;20037;-68
2022/04/04 00:34:45;;;;;;;3.25;2.25;;;;;;;16.71;22.64;97999.56;5021912;28;20036;-69
2022/04/04 00:37:10;;;;;;;3.13;2.28;;;;;;;16.68;22.90;97986.63;5051750;28;20033;-67
2022/04/04 00:39:36;;;;;;;4.88;2.78;;;;;;;16.65;22.80;97987.00;5044901;28;20727;-67
2022/04/04 00:42:02;;;;;;;6.20;3.00;;;;;;;16.63;23.13;97997.06;5048508;28;20040;-70
2022/04/04 00:44:27;;;;;;;4.00;2.47;;;;;;;16.60;22.74;97992.94;5051191;28;20504;-70
2022/04/04 00:46:53;;;;;;;4.78;2.80;;;;;;;16.59;22.88;98001.13;5050687;28;20410;-68
2022/04/04 00:49:18;;;;;;;4.75;3.03;;;;;;;16.53;22.93;97997.41;5054252;28;20526;-69
2022/04/04 00:51:44;;;;;;;6.75;2.53;;;;;;;16.51;22.89;97999.44;5053611;28;20029;-68
2022/04/04 00:54:09;;;;;;;3.63;2.15;;;;;;;16.50;23.16;98002.34;5053177;28;20033;-69
2022/04/04 00:56:36;;;;;;;7.22;2.30;;;;;;;16.47;23.24;98006.19;5056244;28;20029;-74
2022/04/04 00:59:05;;;;;;;6.00;3.20;;;;;;;16.45;22.97;98002.94;5051911;28;20033;-69
2022/04/04 01:01:31;;;;;;;5.10;2.30;;;;;;;16.45;23.32;98001.06;5054768;28;20028;-69
2022/04/04 01:03:57;;;;;;;4.97;3.15;;;;;;;16.45;23.26;98001.06;5054026;28;20045;-73
2022/04/04 01:06:23;;;;;;;19.48;2.60;;;;;;;16.42;22.93;98001.44;5055822;28;20039;-68
2022/04/04 01:08:48;;;;;;;4.22;2.75;;;;;;;16.52;23.23;98006.44;5049147;28;20035;-70
2022/04/04 01:11:14;;;;;;;5.30;2.17;;;;;;;16.79;23.21;98006.56;5036164;28;20507;-71
2022/04/04 01:13:47;;;;;;;6.18;2.13;;;;;;;17.03;23.06;98004.44;5046823;28;20453;-69
2022/04/04 01:16:13;;;;;;;4.32;2.63;;;;;;;17.27;22.91;98011.09;5052847;28;20048;-69
2022/04/04 01:18:39;;;;;;;3.20;2.38;;;;;;;17.46;22.48;98014.00;5054866;28;20037;-68
2022/04/04 01:21:04;;;;;;;4.88;2.72;;;;;;;17.58;22.21;98017.72;5053918;28;20056;-68
2022/04/04 01:23:42;;;;;;;3.80;2.30;;;;;;;17.68;22.06;98010.13;5050841;28;20033;-69
2022/04/04 01:26:10;;;;;;;3.45;2.30;;;;;;;17.78;22.03;98019.59;5053503;28;20120;-68
2022/04/04 01:28:35;;;;;;;4.07;2.28;;;;;;;17.84;21.97;98006.22;5042868;28;20029;-69
2022/04/04 01:31:01;;;;;;;2.70;1.95;;;;;;;17.92;22.10;98013.22;5047954;28;20033;-70
2022/04/04 01:33:26;;;;;;;4.32;2.47;;;;;;;17.97;22.07;98015.28;5052294;28;20107;-71
2022/04/04 01:35:55;;;;;;;3.03;2.10;;;;;;;18.03;21.98;98009.16;5054336;28;20095;-71
2022/04/04 01:38:21;;;;;;;3.58;2.40;;;;;;;18.08;21.83;98020.06;5052852;28;20039;-73
2022/04/04 01:40:47;;;;;;;4.47;2.28;;;;;;;18.15;21.89;98020.88;5038680;28;20041;-71
2022/04/04 01:43:12;;;;;;;3.65;2.40;;;;;;;18.14;21.69;98016.53;5042286;28;20123;-69
2022/04/04 01:48:22;;;;;;;3.83;2.40;;;;;;;18.20;21.73;98022.91;5053177;28;20043;-72
2022/04/04 01:50:47;;;;;;;3.40;2.05;;;;;;;18.25;21.52;98024.97;5052991;28;20492;-70
2022/04/04 01:53:29;;;;;;;4.10;2.42;;;;;;;18.26;21.50;98024.78;5051567;28;20037;-67
2022/04/04 01:55:57;;;;;;;3.78;2.00;;;;;;;18.29;21.62;98027.03;5035009;28;20419;-69
2022/04/04 01:58:24;;;;;;;5.85;2.03;;;;;;;18.28;21.70;98025.41;5052557;28;20116;-69
2022/04/04 02:00:52;;;;;;;3.75;2.33;;;;;;;18.32;21.71;98032.97;5049454;28;20545;-71
2022/04/04 02:03:17;;;;;;;4.43;2.38;;;;;;;18.34;21.64;98029.09;5045841;28;20037;-69
2022/04/04 02:05:43;;;;;;;3.55;2.10;;;;;;;18.35;21.61;98029.91;5053235;28;20029;-68
2022/04/04 02:08:09;;;;;;;3.30;2.28;;;;;;;18.36;21.45;98031.53;5050959;28;20491;-68
2022/04/04 02:10:34;;;;;;;3.08;1.83;;;;;;;18.35;21.46;98035.25;5053275;28;20124;-67
2022/04/04 02:13:00;;;;;;;3.70;2.08;;;;;;;18.37;21.47;98034.03;5040310;28;20060;-68
2022/04/04 02:15:26;;;;;;;3.85;2.15;;;;;;;18.40;21.48;98040.81;5051480;28;20029;-70
2022/04/04 02:17:51;;;;;;;2.83;2.30;;;;;;;18.41;21.56;98045.16;5045204;28;20398;-69
2022/04/04 02:20:17;;;;;;;4.35;2.58;;;;;;;18.42;21.45;98046.78;5042080;28;20029;-70
2022/04/04 02:22:42;;;;;;;3.33;2.20;;;;;;;18.43;21.46;98037.72;5037200;28;20036;-71
2022/04/04 02:25:08;;;;;;;3.95;2.13;;;;;;;18.45;21.40;98046.38;5034399;28;20037;-71
2022/04/04 02:27:34;;;;;;;3.22;2.05;;;;;;;18.48;21.34;98048.63;5034950;28;20061;-69
2022/04/04 02:29:59;;;;;;;3.22;2.20;;;;;;;18.47;21.35;98033.56;5050709;28;20499;-70
2022/04/04 02:32:25;;;;;;;3.63;1.92;;;;;;;18.50;21.38;98045.75;5051690;28;20095;-68
2022/04/04 02:34:50;;;;;;;4.80;2.20;;;;;;;18.53;21.38;98050.69;5035126;28;20041;-70
2022/04/04 02:37:16;;;;;;;2.72;2.17;;;;;;;18.54;21.39;98049.63;5033684;28;20029;-71
2022/04/04 02:39:42;;;;;;;5.03;2.30;;;;;;;18.53;21.24;98053.38;5049494;28;20388;-69
2022/04/04 02:42:08;;;;;;;3.13;2.25;;;;;;;18.53;21.30;98054.19;5051155;28;20050;-69
2022/04/04 02:44:34;;;;;;;4.05;2.22;;;;;;;18.54;21.36;98055.84;5047285;28;20155;-71
2022/04/04 02:47:00;;;;;;;4.40;2.28;;;;;;;18.57;21.37;98063.47;5050754;28;20021;-69
2022/04/04 02:49:28;;;;;;;3.38;2.15;;;;;;;18.63;21.17;98066.31;5051994;28;20029;-71
2022/04/04 02:51:55;;;;;;;3.40;2.20;;;;;;;18.63;21.15;98072.50;5051420;28;20117;-72
2022/04/04 02:54:21;;;;;;;3.80;2.25;;;;;;;18.66;21.21;98072.09;5051062;28;20021;-70
2022/04/04 02:56:46;;;;;;;4.43;2.38;;;;;;;18.66;21.35;98076.63;5033257;28;20519;-71
2022/04/04 02:59:12;;;;;;;3.97;2.13;;;;;;;18.67;21.20;98080.94;5047966;28;20032;-72
2022/04/04 03:01:38;;;;;;;4.20;2.20;;;;;;;18.65;21.13;98072.28;5042881;28;20036;-70
2022/04/04 03:04:03;;;;;;;3.25;1.85;;;;;;;18.66;21.40;98085.50;5033388;28;20485;-71
2022/04/04 03:06:29;;;;;;;5.75;2.70;;;;;;;18.69;21.22;98089.59;5032970;28;20041;-71
2022/04/04 03:08:55;;;;;;;3.70;2.30;;;;;;;18.71;21.13;98090.22;5042320;28;20403;-71
2022/04/04 03:11:21;;;;;;;4.10;2.58;;;;;;;18.72;21.27;98097.22;5051339;28;20123;-72
2022/04/04 03:13:46;;;;;;;4.28;2.22;;;;;;;18.72;21.22;98103.38;5050255;28;20032;-69
2022/04/04 03:16:12;;;;;;;3.75;2.30;;;;;;;18.74;21.19;98103.19;5051398;28;20112;-70
2022/04/04 03:18:39;;;;;;;4.22;2.65;;;;;;;18.70;20.93;98099.28;5049570;28;20028;-70
2022/04/04 03:21:05;;;;;;;6.70;2.55;;;;;;;18.71;21.20;98101.75;5052003;28;20039;-71
2022/04/04 03:23:33;;;;;;;4.47;2.42;;;;;;;18.74;21.11;98104.00;5039396;28;20037;-71
2022/04/04 03:25:59;;;;;;;3.55;2.42;;;;;;;18.75;21.17;98105.66;5048028;28;20037;-70
2022/04/04 03:28:25;;;;;;;3.58;2.40;;;;;;;18.79;21.10;98110.59;5042133;28;20125;-68
2022/04/04 03:30:51;;;;;;;2.92;2.00;;;;;;;18.79;21.11;98111.41;5032637;28;20108;-72
2022/04/04 03:33:16;;;;;;;3.35;2.08;;;;;;;18.81;21.48;98108.53;5049486;28;20436;-71
2022/04/04 03:35:42;;;;;;;5.80;2.65;;;;;;;18.83;21.30;98109.97;5051045;28;20048;-71
2022/04/04 03:38:10;;;;;;;3.60;2.53;;;;;;;18.84;21.37;98102.75;5050980;28;20029;-69
2022/04/04 03:40:37;;;;;;;4.03;2.65;;;;;;;18.86;21.29;98106.03;5051096;28;20025;-71
2022/04/04 03:43:02;;;;;;;3.88;2.53;;;;;;;18.88;21.31;98114.69;5050834;28;20458;-71
2022/04/04 03:45:28;;;;;;;5.00;3.03;;;;;;;18.91;21.12;98115.09;5050666;28;20028;-69
2022/04/04 03:47:53;;;;;;;3.45;2.42;;;;;;;18.92;21.21;98111.38;5049602;28;20037;-72
2022/04/04 03:50:20;;;;;;;5.68;2.53;;;;;;;18.97;21.05;98112.66;5049214;28;20036;-72
2022/04/04 03:52:47;;;;;;;4.78;2.75;;;;;;;18.97;21.01;98120.69;5050284;28;20041;-69
2022/04/04 03:55:14;;;;;;;5.97;3.15;;;;;;;19.00;21.05;98117.59;5050901;28;20032;-72
2022/04/04 03:57:40;;;;;;;5.47;2.90;;;;;;;19.02;20.92;98120.88;5049893;28;20036;-73
2022/04/04 04:00:08;;;;;;;5.15;2.45;;;;;;;19.03;20.81;98117.19;5051123;28;20039;-70
2022/04/04 04:02:34;;;;;;;4.95;2.47;;;;;;;19.06;21.01;98127.47;5050389;28;20063;-69
2022/04/04 04:05:01;;;;;;;3.85;2.88;;;;;;;19.09;20.97;98131.59;5043015;28;20507;-72
2022/04/04 04:07:26;;;;;;;5.63;2.72;;;;;;;19.11;20.71;98132.22;5032356;28;20052;-70
2022/04/04 04:09:53;;;;;;;4.22;2.80;;;;;;;19.14;21.08;98129.09;5037665;28;20076;-68
2022/04/04 04:12:20;;;;;;;4.00;2.42;;;;;;;19.17;20.96;98129.50;5043880;28;20064;-70
2022/04/04 04:14:47;;;;;;;4.10;2.65;;;;;;;19.21;20.86;98129.91;5050785;28;20514;-72
2022/04/04 04:17:13;;;;;;;5.13;2.67;;;;;;;19.21;20.77;98128.03;5048637;28;20488;-69
2022/04/04 04:22:23;;;;;;;4.45;2.42;;;;;;;19.26;21.10;98131.94;5047738;28;20036;-68
2022/04/04 04:24:48;;;;;;;6.38;3.30;;;;;;;19.29;20.94;98135.00;5050244;28;20036;-69
2022/04/04 04:27:15;;;;;;;5.80;3.20;;;;;;;19.34;20.64;98139.72;5045312;28;20053;-70
2022/04/04 04:29:40;;;;;;;5.65;3.33;;;;;;;19.39;20.66;98136.44;5049503;28;20044;-70
2022/04/04 04:32:08;;;;;;;4.45;2.65;;;;;;;19.42;20.91;98144.88;5050224;28;20037;-71
2022/04/04 04:34:34;;;;;;;4.72;2.95;;;;;;;19.43;20.45;98137.63;5031976;28;20029;-72
2022/04/04 04:37:00;;;;;;;5.07;3.20;;;;;;;19.42;20.29;98134.16;5034714;28;20451;-71
2022/04/04 04:39:26;;;;;;;4.75;3.03;;;;;;;19.39;20.32;98133.75;5040834;28;20104;-70
2022/04/04 04:41:52;;;;;;;4.57;2.83;;;;;;;19.34;20.38;98134.38;5050300;28;20032;-70
2022/04/04 04:44:18;;;;;;;5.15;3.03;;;;;;;19.34;20.13;98131.69;5051013;28;20082;-68
2022/04/04 04:46:44;;;;;;;4.05;2.97;;;;;;;19.34;20.08;98129.84;5050057;28;20033;-71
2022/04/04 04:49:10;;;;;;;4.93;3.33;;;;;;;19.38;20.07;98134.78;5049015;28;20040;-71
2022/04/04 04:51:36;;;;;;;6.18;3.30;;;;;;;19.41;20.10;98135.19;5050408;28;20033;-70
2022/04/04 04:54:03;;;;;;;5.10;3.25;;;;;;;19.51;20.02;98140.09;5050179;28;20106;-70
2022/04/04 04:56:30;;;;;;;4.60;2.97;;;;;;;19.55;20.17;98146.69;5050501;28;20046;-69
2022/04/04 04:58:55;;;;;;;5.68;3.40;;;;;;;19.64;20.04;98144.56;5037309;28;20029;-68
2022/04/04 05:01:21;;;;;;;6.90;3.38;;;;;;;19.68;19.85;98148.47;5039182;28;20111;-68
2022/04/04 05:03:47;;;;;;;5.45;3.90;;;;;;;19.67;19.93;98136.09;5046805;28;20048;-69
2022/04/04 05:06:12;;;;;;;8.00;3.50;;;;;;;19.72;20.05;98152.38;5050746;28;20040;-69
2022/04/04 05:08:38;;;;;;;3.97;3.03;;;;;;;19.75;20.05;98145.75;5040247;28;20552;-70
2022/04/04 05:11:03;;;;;;;5.15;3.22;;;;;;;19.76;19.83;98147.41;5032392;28;20621;-71
2022/04/04 05:13:29;;;;;;;4.75;3.72;;;;;;;19.77;20.08;98151.72;5049391;28;20067;-70
2022/04/04 05:15:54;;;;;;;6.47;3.85;;;;;;;19.81;20.10;98151.06;5051984;28;20095;-69
2022/04/04 05:18:20;;;;;;;4.13;2.85;;;;;;;19.85;20.09;98158.72;5050269;28;20051;-71
2022/04/04 05:20:46;;;;;;;5.30;3.33;;;;;;;19.84;20.13;98155.22;5051679;28;20048;-74
2022/04/04 05:23:13;;;;;;;5.28;3.63;;;;;;;19.88;20.01;98152.94;5050724;28;20159;-73
2022/04/04 05:25:40;;;;;;;7.63;3.53;;;;;;;19.91;19.99;98158.69;5051467;28;20037;-73
2022/04/04 05:28:07;;;;;;;5.72;3.67;;;;;;;20.00;19.97;98156.59;5051100;28;20484;-70
2022/04/04 05:30:33;;;;;;;5.53;3.33;;;;;;;20.09;20.09;98147.22;5051270;28;20043;-72
2022/04/04 05:32:59;;;;;;;4.90;3.50;;;;;;;20.19;20.13;98152.13;5050057;28;20127;-72
2022/04/04 05:35:25;;;;;;;6.53;3.17;;;;;;;20.29;20.36;98148.94;5052123;28;20029;-70
2022/04/04 05:37:54;;;;;;;10.70;3.70;;;;;;;20.43;20.30;98153.19;5054465;28;20074;-71
2022/04/04 05:40:23;;;;;;;6.50;3.88;;;;;;;20.50;20.36;98147.75;5054938;28;20071;-69
2022/04/04 05:42:49;;;;;;;5.47;3.67;;;;;;;20.51;20.42;98153.97;5049353;28;20390;-68
2022/04/04 05:45:14;;;;;;;6.22;4.05;;;;;;;20.42;20.89;98154.22;5038187;28;20036;-72
2022/04/04 05:47:41;;;;;;;5.25;3.50;;;;;;;20.34;21.09;98146.44;5051167;28;20484;-70
2022/04/04 05:50:07;;;;;;;5.70;3.55;;;;;;;20.32;20.96;98155.75;5054978;28;20033;-66
2022/04/04 05:52:35;;;;;;;9.93;3.22;;;;;;;20.32;20.98;98161.13;5045056;28;20391;-71
2022/04/04 05:55:02;;;;;;;5.97;3.85;;;;;;;20.31;21.28;98154.09;5049453;28;20060;-67
2022/04/04 05:57:29;;;;;;;7.03;3.70;;;;;;;20.32;21.12;98145.84;5017516;28;20033;-68
2022/04/04 05:59:55;;;;;;;4.85;3.25;;;;;;;20.33;21.47;98160.06;5035118;28;20063;-70
2022/04/04 06:02:26;;;;;;;3.88;3.42;;;;;;;20.34;21.78;98148.28;5034861;28;20065;-71
2022/04/04 06:04:52;;;;;;;5.95;3.47;;;;;;;20.34;21.55;98157.19;5052375;28;20029;-69
2022/04/04 06:07:18;;;;;;;5.88;4.28;;;;;;;20.36;21.54;98156.97;5048898;28;20047;-71
2022/04/04 06:09:45;;;;;;;7.13;3.88;;;;;;;20.36;21.81;98157.78;5054622;28;20392;-70
2022/04/04 06:12:10;;;;;;;5.72;3.97;;;;;;;20.36;21.88;98157.78;5054677;28;20029;-70
2022/04/04 06:14:36;;;;;;;5.07;3.75;;;;;;;20.37;21.91;98159.41;5054332;28;20037;-72
2022/04/04 06:17:05;;;;;;;5.70;3.58;;;;;;;20.37;21.84;98156.72;5052777;28;20075;-70
2022/04/04 06:19:34;;;;;;;5.15;2.78;;;;;;;20.42;21.61;98161.47;5053744;28;20396;-70
2022/04/04 06:22:04;;;;;;;6.03;3.53;;;;;;;20.45;21.84;98168.25;5046973;28;20124;-68
2022/04/04 06:24:31;;;;;;;9.88;3.90;;;;;;;20.44;21.67;98164.72;5050310;28;20040;-69
2022/04/04 06:27:00;;;;;;;12.27;3.78;;;;;;;20.45;21.88;98169.06;5052842;28;20068;-68
2022/04/04 06:29:25;;;;;;;15.32;5.03;;;;;;;20.47;22.02;98166.19;5041812;28;20500;-68
2022/04/04 06:31:53;;;;;;;4.45;3.20;;;;;;;20.49;21.69;98166.78;5033308;28;20148;-67
2022/04/04 06:34:20;;;;;;;11.38;3.72;;;;;;;20.50;21.92;98171.13;5047901;28;20166;-69
2022/04/04 06:36:46;;;;;;;9.57;3.80;;;;;;;20.52;21.82;98169.00;5044574;28;20056;-70
2022/04/04 06:39:13;;;;;;;6.60;3.08;;;;;;;20.54;21.29;98175.00;5049090;28;20055;-67
2022/04/04 06:41:39;;;;;;;9.70;3.47;;;;;;;20.57;21.13;98179.94;5053870;28;20392;-72
2022/04/04 06:44:05;;;;;;;9.15;3.05;;;;;;;20.58;21.31;98174.38;5043218;28;20071;-71
2022/04/04 06:46:31;;;;;;;6.00;3.35;;;;;;;20.57;20.86;98167.34;5043549;28;20065;-70
2022/04/04 06:48:57;;;;;;;4.28;2.85;;;;;;;20.62;21.16;98176.59;5040196;28;20049;-70
2022/04/04 06:51:23;;;;;;;5.28;2.95;;;;;;;20.64;20.85;98180.72;5033897;28;20111;-71
2022/04/04 06:53:48;;;;;;;6.00;3.10;;;;;;;20.65;20.81;98177.00;5037236;28;20284;-71
2022/04/04 06:56:14;;;;;;;5.32;2.60;;;;;;;20.67;20.68;98179.44;5037881;28;20033;-66
2022/04/04 06:58:39;;;;;;;6.75;3.10;;;;;;;20.65;20.88;98173.47;5053312;28;20037;-72
2022/04/04 07:01:06;;;;;;;8.52;4.03;;;;;;;20.65;20.70;98173.47;5053572;28;20029;-69
2022/04/04 07:03:31;;;;;;;5.38;3.40;;;;;;;20.64;20.67;98174.50;5053259;28;20447;-69
2022/04/04 07:05:57;;;;;;;5.15;3.10;;;;;;;20.62;20.96;98176.59;5051303;28;20033;-68
2022/04/04 07:08:22;;;;;;;6.28;2.97;;;;;;;20.62;20.88;98168.53;5052632;28;20155;-68
2022/04/04 07:10:48;;;;;;;6.55;3.45;;;;;;;20.64;20.62;98174.50;5053137;28;20059;-73
2022/04/04 07:13:15;;;;;;;7.07;3.92;;;;;;;20.63;20.62;98168.31;5053394;28;20062;-68
2022/04/04 07:15:41;;;;;;;8.75;4.65;;;;;;;20.66;20.55;98172.44;5039966;28;20032;-69
2022/04/04 07:18:08;;;;;;;6.57;3.00;;;;;;;20.68;20.90;98173.84;5052588;28;20037;-69
2022/04/04 07:20:34;;;;;;;4.10;3.35;;;;;;;20.68;20.59;98171.16;5053225;28;20029;-72
2022/04/04 07:23:00;;;;;;;4.45;2.90;;;;;;;20.67;20.56;98180.25;5046087;28;20549;-72
2022/04/04 07:25:27;;;;;;;5.63;3.80;;;;;;;20.66;20.38;98173.22;5053061;28;20029;-68
2022/04/04 07:27:52;;;;;;;5.70;3.33;;;;;;;20.67;20.45;98168.69;5051559;28;20432;-71
2022/04/04 07:30:20;;;;;;;4.75;3.22;;;;;;;20.68;20.20;98173.03;5041602;28;20052;-70
2022/04/04 07:32:48;;;;;;;6.90;3.35;;;;;;;20.66;20.11;98167.06;5050848;28;20037;-68
2022/04/04 07:35:14;;;;;;;4.68;2.90;;;;;;;20.69;20.05;98172.81;5051443;28;20407;-69
2022/04/04 07:37:40;;;;;;;13.68;3.17;;;;;;;20.69;20.62;98172.00;5051332;28;20465;-69
2022/04/04 07:40:10;;;;;;;7.38;2.60;;;;;;;20.49;21.31;98162.22;5050576;28;20029;-67
2022/04/04 07:42:36;;;;;;;7.22;3.10;;;;;;;20.21;21.52;98159.97;5051774;28;20037;-68
2022/04/04 07:45:02;;;;;;;7.75;3.47;;;;;;;19.97;21.85;98167.75;5050206;28;20403;-65
2022/04/04 07:47:27;;;;;;;6.53;3.03;;;;;;;19.72;21.76;98165.81;5050929;28;20032;-71
2022/04/04 07:49:53;;;;;;;8.32;4.10;;;;;;;19.48;22.10;98157.41;5046290;28;20064;-70
2022/04/04 07:52:18;;;;;;;8.20;3.90;;;;;;;19.26;22.74;98156.06;5050174;28;20044;-70
2022/04/04 07:54:44;;;;;;;10.82;4.95;;;;;;;19.07;22.60;98158.59;5051802;28;20043;-69
2022/04/04 07:57:10;;;;;;;11.43;4.50;;;;;;;18.92;22.79;98158.81;5045277;28;20051;-71
2022/04/04 07:59:36;;;;;;;12.63;4.95;;;;;;;18.82;22.85;98159.22;5042645;28;20116;-68
2022/04/04 08:02:02;;;;;;;8.70;4.00;;;;;;;18.69;23.21;98146.66;5050214;28;20404;-72
2022/04/04 08:04:28;;;;;;;11.40;5.00;;;;;;;18.59;23.15;98152.47;5043750;28;20037;-70
2022/04/04 08:06:53;;;;;;;5.75;3.25;;;;;;;18.57;23.12;98159.03;5049986;28;20033;-72
2022/04/04 08:09:19;;;;;;;9.20;3.67;;;;;;;18.54;23.15;98160.28;5047280;28;20397;-71
2022/04/04 08:11:45;;;;;;;13.20;4.55;;;;;;;18.49;23.32;98153.91;5039777;28;20036;-73
2022/04/04 08:14:11;;;;;;;7.07;3.75;;;;;;;18.42;23.16;98154.72;5052087;28;20117;-70
2022/04/04 08:16:37;;;;;;;6.65;3.22;;;;;;;18.35;22.90;98153.91;5051465;28;20190;-69
2022/04/04 08:19:02;;;;;;;6.63;3.40;;;;;;;18.27;23.29;98157.63;5043884;28;20548;-68
2022/04/04 08:21:29;;;;;;;6.05;2.97;;;;;;;18.20;23.26;98154.09;5036714;28;20046;-70
2022/04/04 08:23:55;;;;;;;6.70;3.33;;;;;;;18.15;23.45;98153.91;5047371;28;20485;-71
2022/04/04 08:26:20;;;;;;;10.82;3.78;;;;;;;18.14;23.77;98152.25;5045818;28;20052;-70
2022/04/04 08:28:46;;;;;;;4.60;2.80;;;;;;;18.14;23.77;98162.94;5036733;28;20037;-73
2022/04/04 08:31:11;;;;;;;5.38;2.47;;;;;;;18.10;23.65;98151.00;5052758;28;20381;-72
2022/04/04 08:33:37;;;;;;;5.00;2.63;;;;;;;18.08;23.60;98159.25;5044569;28;20041;-70
2022/04/04 08:36:05;;;;;;;6.30;3.15;;;;;;;18.06;24.00;98155.09;5043542;28;20036;-72
2022/04/04 08:38:31;;;;;;;7.85;2.95;;;;;;;18.04;23.94;98151.78;5032054;28;20040;-71
2022/04/04 08:41:03;;;;;;;8.00;2.45;;;;;;;18.04;23.64;98152.63;5032570;28;20056;-70
2022/04/04 08:43:35;;;;;;;4.97;2.28;;;;;;;18.03;23.63;98148.31;5044760;28;20120;-71
2022/04/04 08:46:02;;;;;;;6.32;2.67;;;;;;;18.07;23.47;98151.41;5051537;28;20043;-69
2022/04/04 08:48:30;;;;;;;5.13;2.15;;;;;;;18.06;23.68;98147.91;5049800;28;20032;-69
2022/04/04 08:50:57;;;;;;;7.90;2.63;;;;;;;18.04;23.65;98147.28;5051732;28;20393;-73
2022/04/04 08:53:22;;;;;;;5.00;2.38;;;;;;;18.07;23.34;98146.03;5049405;28;20037;-68
2022/04/04 08:55:48;;;;;;;4.72;2.65;;;;;;;18.04;23.42;98149.13;5050869;28;20041;-74
2022/04/04 08:58:14;;;;;;;6.93;2.45;;;;;;;18.01;23.55;98146.88;5051567;28;20068;-75
2022/04/04 09:00:40;;;;;;;3.75;2.25;;;;;;;18.01;23.36;98144.19;5044475;28;20032;-71
2022/04/04 09:03:06;;;;;;;4.38;2.40;;;;;;;17.98;23.12;98142.72;5044367;28;20047;-69
2022/04/04 09:05:50;;;;;;;3.40;2.40;;;;;;;17.93;23.39;98142.50;5050675;28;20033;-70
2022/04/04 09:08:18;;;;;;;4.22;2.50;;;;;;;17.88;23.21;98143.09;5049546;28;20036;-68
2022/04/04 09:10:44;;;;;;;5.20;2.35;;;;;;;17.91;23.74;98140.00;5035849;28;20092;-70
2022/04/04 09:13:15;;;;;;;3.05;1.80;;;;;;;17.96;23.38;98136.72;5039564;28;20037;-70
2022/04/04 09:15:59;;;;;;;4.05;2.53;;;;;;;17.94;23.19;98147.66;5040297;28;20029;-73
2022/04/04 09:18:37;;;;;;;7.30;2.47;;;;;;;17.89;23.46;98147.41;5043498;28;20079;-70
2022/04/04 09:21:31;;;;;;;5.40;2.03;;;;;;;17.89;23.43;98141.25;5045397;28;20041;-69
2022/04/04 09:24:01;;;;;;;4.68;2.05;;;;;;;17.90;23.07;98140.22;5049336;28;20120;-70
2022/04/04 09:26:42;;;;;;;4.88;3.42;;;;;;;17.92;23.47;98143.53;5041300;28;20045;-70
2022/04/04 09:29:19;;;;;;;3.33;2.00;;;;;;;17.91;23.38;98148.03;5053487;28;20404;-70
2022/04/04 09:32:11;;;;;;;2.97;1.98;;;;;;;17.90;23.22;98142.91;5054297;28;20280;-69
2022/04/04 09:34:52;;;;;;;4.55;1.73;;;;;;;17.95;23.43;98138.59;5053833;28;20053;-69
2022/04/04 09:37:19;;;;;;;3.47;1.95;;;;;;;17.96;23.51;98137.56;5054689;28;20040;-72
2022/04/04 09:39:45;;;;;;;4.22;1.90;;;;;;;18.01;23.33;98149.56;5036113;28;20033;-71
2022/04/04 09:42:16;;;;;;;2.75;1.90;;;;;;;17.99;23.77;98147.06;5051726;28;20392;-70
2022/04/04 09:44:55;;;;;;;5.45;1.77;;;;;;;17.97;23.50;98149.94;5034990;28;20053;-72
2022/04/04 09:47:20;;;;;;;3.65;1.50;;;;;;;17.97;23.60;98141.06;5040596;28;20572;-72
2022/04/04 09:49:46;;;;;;;8.60;1.50;;;;;;;17.99;23.89;98145.22;5054405;28;20132;-71
2022/04/04 09:52:11;;;;;;;2.92;2.05;;;;;;;18.04;23.45;98155.31;5053312;28;20132;-71
2022/04/04 09:54:41;;;;;;;2.30;1.40;;;;;;;17.99;23.25;98155.09;5054624;28;20107;-73
2022/04/04 09:57:11;;;;;;;4.83;1.67;;;;;;;17.91;23.04;98148.03;5049583;28;20068;-72
2022/04/04 09:59:38;;;;;;;2.70;1.58;;;;;;;17.89;23.60;98149.28;5039665;28;20029;-69
2022/04/04 10:02:05;;;;;;;2.13;1.38;;;;;;;17.88;23.48;98152.97;5046501;28;20464;-74
2022/04/04 10:04:32;;;;;;;3.15;1.55;;;;;;;17.86;23.30;98150.53;5037200;28;20047;-72
2022/04/04 10:06:59;;;;;;;3.47;1.92;;;;;;;17.84;23.41;98139.19;5045807;28;20044;-71
2022/04/04 10:09:26;;;;;;;2.80;1.60;;;;;;;17.83;23.78;98146.38;5053846;28;20132;-72
2022/04/04 10:11:52;;;;;;;3.50;1.55;;;;;;;17.85;24.10;98140.84;5054260;28;20051;-73
2022/04/04 10:14:18;;;;;;;2.92;1.50;;;;;;;17.92;23.85;98151.56;5044628;28;20127;-71
2022/04/04 10:16:45;;;;;;;4.05;1.50;;;;;;;17.93;23.92;98146.00;5045200;28;20033;-71
2022/04/04 10:19:11;;;;;;;2.42;1.40;;;;;;;17.96;23.96;98140.25;5041733;28;20123;-73
2022/04/04 10:21:37;;;;;;;3.45;1.42;;;;;;;18.02;24.00;98151.16;5035664;28;20051;-68
2022/04/04 10:24:07;;;;;;;3.75;1.92;;;;;;;18.08;23.63;98150.38;5037425;28;20045;-74
2022/04/04 10:26:35;;;;;;;2.78;1.40;;;;;;;18.12;23.45;98152.44;5033683;28;20057;-72
2022/04/04 10:29:21;;;;;;;2.10;1.58;;;;;;;18.13;23.42;98153.28;5032480;28;20405;-70
2022/04/04 10:31:53;;;;;;;2.00;1.42;;;;;;;18.14;23.51;98150.38;5054485;28;20040;-69
2022/04/04 10:34:20;;;;;;;2.38;1.40;;;;;;;18.16;23.26;98155.53;5040730;28;20099;-68
2022/04/04 10:37:00;;;;;;;1.50;1.10;;;;;;;18.13;23.18;98147.91;5037328;28;20444;-72
2022/04/04 10:39:41;;;;;;;2.80;1.10;;;;;;;18.12;23.34;98144.41;5044428;28;20031;-72
2022/04/04 10:42:28;;;;;;;3.08;1.50;;;;;;;18.11;23.52;98141.94;5041893;28;20056;-70
2022/04/04 10:45:11;;;;;;;3.92;1.20;;;;;;;18.15;23.51;98148.53;5038466;28;20094;-71
2022/04/04 10:47:45;;;;;;;2.40;1.60;;;;;;;18.21;23.50;98136.19;5037722;28;20119;-69
2022/04/04 10:50:25;;;;;;;2.33;1.40;;;;;;;18.25;23.33;98142.75;5044792;28;20496;-71
2022/04/04 10:52:53;;;;;;;1.42;1.00;;;;;;;18.30;23.51;98149.19;5039294;28;20413;-67
2022/04/04 10:55:29;;;;;;;2.13;1.27;;;;;;;18.35;23.19;98147.72;5053059;28;20055;-70
2022/04/04 10:57:58;;;;;;;2.30;1.30;;;;;;;18.37;23.20;98143.81;5042396;28;20565;-69
2022/04/04 11:00:32;;;;;;;2.17;1.27;;;;;;;18.38;23.39;98142.75;5046718;28;20020;-67
2022/04/04 11:03:01;;;;;;;2.00;1.13;;;;;;;18.34;23.27;98136.19;5035206;28;20087;-67
2022/04/04 11:08:13;;;;;;;1.77;1.02;;;;;;;18.27;23.15;98140.72;5041363;28;20044;-69
2022/04/04 11:10:41;;;;;;;1.60;1.00;;;;;;;18.27;23.02;98133.53;5046188;28;20044;-72
2022/04/04 11:13:08;;;;;;;1.42;1.02;;;;;;;18.33;23.22;98139.91;5051238;28;20036;-70
2022/04/04 11:15:56;;;;;;;2.30;1.23;;;;;;;18.33;22.82;98139.91;5036057;28;20057;-68
2022/04/04 11:18:32;;;;;;;2.17;1.20;;;;;;;18.34;23.14;98135.34;5046905;28;20392;-71
2022/04/04 11:21:01;;;;;;;2.00;1.35;;;;;;;18.32;23.04;98135.56;5041341;28;20044;-70
2022/04/04 11:23:36;;;;;;;3.63;1.15;;;;;;;18.32;23.08;98132.06;5042969;28;20142;-72
2022/04/04 11:26:04;;;;;;;2.17;1.23;;;;;;;18.32;22.99;98138.25;5045431;28;20033;-72
2022/04/04 11:28:35;;;;;;;2.65;1.13;;;;;;;18.31;22.81;98139.28;5044330;28;20446;-68
2022/04/04 11:31:09;;;;;;;1.98;1.77;;;;;;;18.24;22.44;98136.59;5032642;28;20120;-70
2022/04/04 11:33:45;;;;;;;2.20;1.10;;;;;;;18.17;22.42;98135.75;5042772;28;20037;-69
2022/04/04 11:36:21;;;;;;;2.67;1.00;;;;;;;18.10;22.64;98133.06;5052797;28;20039;-73
2022/04/04 11:38:47;;;;;;;2.42;1.13;;;;;;;18.08;22.73;98137.84;5049571;28;20369;-70
2022/04/04 11:41:12;;;;;;;1.83;1.15;;;;;;;18.04;22.62;98133.06;5052722;28;20116;-69
2022/04/04 11:43:40;;;;;;;2.92;1.08;;;;;;;18.03;22.60;98136.75;5047610;28;20043;-72